KCKB

North Central West Virginia Airport

Clarksburg, West Virginia, USA
METAR KCKB 221953Z 20011KT 10SM CLR 16/M01 A3013 RMK AO2 SLP202 T01561011
Observed Flight Rules
Oct-22 @ 19:53 UTC (56 minutes ago) Visual Flight Rules
Wind Visibility Clouds
200° at 11 knots 10 miles
  • Clear skies
Temperatures Readings
Current 16°C / 61°F
Dewpoint -1°C / 30°F
Humidity 31%
Altimeter 30.13" Hg
Pressure 1020.2 hPa
Elevation 360
METAR KCKB 221953Z 20011KT 10SM CLR 16/M01 A3013 RMK AO2 SLP202 T01561011
Observed Flight Rules
Oct-22 @ 19:53 UTC
(56 minutes ago)
VFR
Wind Visibility
200° at 11 knots 10 miles
Clouds
  • Clear skies
Temperature Dewpoint
16°C / 61°F -1°C / 30°F
Humidity Altimeter Pressure
31% 30.13" Hg 1020.2 hPa